Time,TemperatureF,DewpointF,PressureIn,WindDirection,WindDirectionDegrees,WindSpeedMPH,WindSpeedGustMPH,Humidity,HourlyPrecipIn,Conditions,Clouds,dailyrainin,SolarRadiationWatts/m^2,SoftwareType,DateUTC
2013-04-03 00:02:00,16.0,5.0,-100.00,NW,316,2.0,5.0,61,0.00,,,0.00,1.000000,,2013-04-03 05:02:00,
2013-04-03 00:32:00,16.0,5.0,-100.00,NW,316,2.0,5.0,61,0.00,,,0.00,1.000000,,2013-04-03 05:32:00,
2013-04-03 00:42:00,16.0,5.0,-100.00,NW,316,2.0,5.0,61,0.00,,,0.00,1.000000,,2013-04-03 05:42:00,
2013-04-03 00:52:00,16.0,5.0,-100.00,NW,316,2.0,5.0,61,0.00,,,0.00,1.000000,,2013-04-03 05:52:00,
2013-04-03 01:02:00,15.0,6.0,-100.00,NW,322,1.0,5.0,66,0.00,,,0.00,1.000000,,2013-04-03 06:02:00,
2013-04-03 01:22:00,15.0,6.0,-100.00,NW,322,1.0,5.0,66,0.00,,,0.00,1.000000,,2013-04-03 06:22:00,
2013-04-03 01:32:00,15.0,6.0,-100.00,NW,322,1.0,5.0,66,0.00,,,0.00,1.000000,,2013-04-03 06:32:00,
2013-04-03 01:42:00,15.0,6.0,-100.00,NW,322,1.0,5.0,66,0.00,,,0.00,1.000000,,2013-04-03 06:42:00,
2013-04-03 01:52:00,15.0,6.0,-100.00,NW,322,1.0,5.0,66,0.00,,,0.00,1.000000,,2013-04-03 06:52:00,
2013-04-03 02:02:00,12.0,5.0,-100.00,NNW,340,1.0,3.0,74,0.00,,,0.00,1.000000,,2013-04-03 07:02:00,
2013-04-03 02:23:00,12.0,5.0,-100.00,NNW,340,1.0,3.0,74,0.00,,,0.00,1.000000,,2013-04-03 07:23:00,
2013-04-03 02:33:00,12.0,5.0,-100.00,NNW,340,1.0,3.0,74,0.00,,,0.00,1.000000,,2013-04-03 07:33:00,
2013-04-03 02:42:00,12.0,5.0,-100.00,NNW,340,1.0,3.0,74,0.00,,,0.00,1.000000,,2013-04-03 07:42:00,
2013-04-03 02:53:00,12.0,5.0,-100.00,NNW,340,1.0,3.0,74,0.00,,,0.00,1.000000,,2013-04-03 07:53:00,
2013-04-03 03:02:00,13.0,7.0,-100.00,North,354,2.0,4.0,78,0.00,,,0.00,1.000000,,2013-04-03 08:02:00,
2013-04-03 03:33:00,13.0,7.0,-100.00,North,354,2.0,4.0,78,0.00,,,0.00,1.000000,,2013-04-03 08:33:00,
2013-04-03 03:43:00,13.0,7.0,-100.00,North,354,2.0,4.0,78,0.00,,,0.00,1.000000,,2013-04-03 08:43:00,
2013-04-03 03:52:00,13.0,7.0,-100.00,North,354,2.0,4.0,78,0.00,,,0.00,1.000000,,2013-04-03 08:52:00,
2013-04-03 04:02:00,11.0,6.0,-100.00,NNW,335,2.0,4.0,78,0.00,,,0.00,1.000000,,2013-04-03 09:02:00,
2013-04-03 04:33:00,11.0,6.0,-100.00,NNW,335,2.0,4.0,78,0.00,,,0.00,1.000000,,2013-04-03 09:33:00,
2013-04-03 04:43:00,11.0,6.0,-100.00,NNW,335,2.0,4.0,78,0.00,,,0.00,1.000000,,2013-04-03 09:43:00,
2013-04-03 04:53:00,11.0,6.0,-100.00,NNW,335,2.0,4.0,78,0.00,,,0.00,1.000000,,2013-04-03 09:53:00,
2013-04-03 05:02:00,9.0,6.0,-100.00,WNW,286,1.0,3.0,86,0.00,,,0.00,1.000000,,2013-04-03 10:02:00,
2013-04-03 05:22:00,9.0,6.0,-100.00,WNW,286,1.0,3.0,86,0.00,,,0.00,1.000000,,2013-04-03 10:22:00,
2013-04-03 05:33:00,9.0,6.0,-100.00,WNW,286,1.0,3.0,86,0.00,,,0.00,1.000000,,2013-04-03 10:33:00,
2013-04-03 05:43:00,9.0,6.0,-100.00,WNW,286,1.0,3.0,86,0.00,,,0.00,1.000000,,2013-04-03 10:43:00,
2013-04-03 05:53:00,9.0,6.0,-100.00,WNW,286,1.0,3.0,86,0.00,,,0.00,1.000000,,2013-04-03 10:53:00,
2013-04-03 06:02:00,8.0,5.0,-100.00,NNW,340,2.0,3.0,89,0.00,,,0.00,1.000000,,2013-04-03 11:02:00,
2013-04-03 06:23:00,8.0,5.0,-100.00,NNW,340,2.0,3.0,89,0.00,,,0.00,1.000000,,2013-04-03 11:23:00,
2013-04-03 06:33:00,8.0,5.0,-100.00,NNW,340,2.0,3.0,89,0.00,,,0.00,1.000000,,2013-04-03 11:33:00,
2013-04-03 06:42:00,8.0,5.0,-100.00,NNW,340,2.0,3.0,89,0.00,,,0.00,1.000000,,2013-04-03 11:42:00,
2013-04-03 06:53:00,8.0,5.0,-100.00,NNW,340,2.0,3.0,89,0.00,,,0.00,1.000000,,2013-04-03 11:53:00,
2013-04-03 07:02:00,7.0,5.0,-100.00,NNW,341,0.0,3.0,91,0.00,,,0.00,8.000000,,2013-04-03 12:02:00,
2013-04-03 07:22:00,7.0,5.0,-100.00,NNW,341,0.0,3.0,91,0.00,,,0.00,8.000000,,2013-04-03 12:22:00,
2013-04-03 07:33:00,7.0,5.0,-100.00,NNW,341,0.0,3.0,91,0.00,,,0.00,8.000000,,2013-04-03 12:33:00,
2013-04-03 07:42:00,7.0,5.0,-100.00,NNW,341,0.0,3.0,91,0.00,,,0.00,8.000000,,2013-04-03 12:42:00,
2013-04-03 07:52:00,7.0,5.0,-100.00,NNW,341,0.0,3.0,91,0.00,,,0.00,8.000000,,2013-04-03 12:52:00,
2013-04-03 08:02:00,17.0,9.0,-100.00,SSW,201,0.0,3.0,70,0.00,,,0.00,123.000000,,2013-04-03 13:02:00,
2013-04-03 08:32:00,17.0,9.0,-100.00,SSW,201,0.0,3.0,70,0.00,,,0.00,123.000000,,2013-04-03 13:32:00,
2013-04-03 08:42:00,17.0,9.0,-100.00,SSW,201,0.0,3.0,70,0.00,,,0.00,123.000000,,2013-04-03 13:42:00,
2013-04-03 08:52:00,17.0,9.0,-100.00,SSW,201,0.0,3.0,70,0.00,,,0.00,123.000000,,2013-04-03 13:52:00,
2013-04-03 09:02:00,29.0,9.0,-100.00,SW,231,1.0,3.0,43,0.00,,,0.00,345.000000,,2013-04-03 14:02:00,
2013-04-03 09:32:00,29.0,9.0,-100.00,SW,231,1.0,3.0,43,0.00,,,0.00,345.000000,,2013-04-03 14:32:00,
2013-04-03 09:43:00,29.0,9.0,-100.00,SW,231,1.0,3.0,43,0.00,,,0.00,345.000000,,2013-04-03 14:43:00,
2013-04-03 09:52:00,29.0,9.0,-100.00,SW,231,1.0,3.0,43,0.00,,,0.00,345.000000,,2013-04-03 14:52:00,
2013-04-03 10:02:00,32.0,6.0,-100.00,SE,141,3.0,5.0,32,0.00,,,0.00,539.000000,,2013-04-03 15:02:00,
2013-04-03 10:33:00,32.0,6.0,-100.00,SE,141,3.0,5.0,32,0.00,,,0.00,539.000000,,2013-04-03 15:33:00,
2013-04-03 10:43:00,32.0,6.0,-100.00,SE,141,3.0,5.0,32,0.00,,,0.00,539.000000,,2013-04-03 15:43:00,
2013-04-03 10:53:00,32.0,6.0,-100.00,SE,141,3.0,5.0,32,0.00,,,0.00,539.000000,,2013-04-03 15:53:00,
2013-04-03 11:02:00,37.0,6.0,-100.00,SSW,204,4.0,12.0,27,0.00,,,0.00,687.000000,,2013-04-03 16:02:00,
2013-04-03 11:33:00,37.0,6.0,-100.00,SSW,204,4.0,12.0,27,0.00,,,0.00,687.000000,,2013-04-03 16:33:00,
2013-04-03 11:44:00,37.0,6.0,-100.00,SSW,204,4.0,12.0,27,0.00,,,0.00,687.000000,,2013-04-03 16:44:00,
2013-04-03 11:53:00,37.0,6.0,-100.00,SSW,204,4.0,12.0,27,0.00,,,0.00,687.000000,,2013-04-03 16:53:00,
2013-04-03 12:02:00,39.0,7.0,-100.00,SSW,197,5.0,13.0,26,0.00,,,0.00,808.000000,,2013-04-03 17:02:00,
2013-04-03 12:34:00,39.0,7.0,-100.00,SSW,197,5.0,13.0,26,0.00,,,0.00,808.000000,,2013-04-03 17:34:00,
2013-04-03 12:46:00,39.0,7.0,-100.00,SSW,197,5.0,13.0,26,0.00,,,0.00,808.000000,,2013-04-03 17:46:00,
2013-04-03 12:54:00,39.0,7.0,-100.00,SSW,197,5.0,13.0,26,0.00,,,0.00,808.000000,,2013-04-03 17:54:00,
2013-04-03 14:02:00,41.0,4.0,-100.00,WSW,239,7.0,15.0,21,-99.99,,,0.00,848.000000,,2013-04-03 19:02:00,
2013-04-03 14:32:00,41.0,4.0,-100.00,WSW,239,7.0,15.0,21,-99.99,,,0.00,848.000000,,2013-04-03 19:32:00,
2013-04-03 14:42:00,41.0,4.0,-100.00,WSW,239,7.0,15.0,21,-99.99,,,0.00,848.000000,,2013-04-03 19:42:00,
2013-04-03 14:52:00,41.0,4.0,-100.00,WSW,239,7.0,15.0,21,-99.99,,,0.00,848.000000,,2013-04-03 19:52:00,
2013-04-03 15:02:00,45.0,0.0,-100.00,SSW,192,5.0,13.0,15,0.00,,,0.00,781.000000,,2013-04-03 20:02:00,
2013-04-03 15:33:00,45.0,0.0,-100.00,SSW,192,5.0,13.0,15,0.00,,,0.00,781.000000,,2013-04-03 20:33:00,
2013-04-03 15:42:00,45.0,0.0,-100.00,SSW,192,5.0,13.0,15,0.00,,,0.00,781.000000,,2013-04-03 20:42:00,
2013-04-03 15:53:00,45.0,0.0,-100.00,SSW,192,5.0,13.0,15,0.00,,,0.00,781.000000,,2013-04-03 20:53:00,
2013-04-03 16:02:00,43.0,1.0,-100.00,SW,222,7.0,12.0,17,0.00,,,-99.99,622.000000,,2013-04-03 21:02:00,
2013-04-03 16:33:00,43.0,1.0,-100.00,SW,222,7.0,12.0,17,0.00,,,-99.99,622.000000,,2013-04-03 21:33:00,
2013-04-03 16:42:00,43.0,1.0,-100.00,SW,222,7.0,12.0,17,0.00,,,-99.99,622.000000,,2013-04-03 21:42:00,
2013-04-03 16:52:00,43.0,1.0,-100.00,SW,222,7.0,12.0,17,0.00,,,-99.99,622.000000,,2013-04-03 21:52:00,
2013-04-03 17:02:00,43.0,5.0,-100.00,SSW,208,7.0,16.0,20,0.00,,,0.00,450.000000,,2013-04-03 22:02:00,
2013-04-03 17:33:00,43.0,5.0,-100.00,SSW,208,7.0,16.0,20,0.00,,,0.00,450.000000,,2013-04-03 22:33:00,
2013-04-03 17:42:00,43.0,5.0,-100.00,SSW,208,7.0,16.0,20,0.00,,,0.00,450.000000,,2013-04-03 22:42:00,
2013-04-03 17:52:00,43.0,5.0,-100.00,SSW,208,7.0,16.0,20,0.00,,,0.00,450.000000,,2013-04-03 22:52:00,
2013-04-03 18:02:00,40.0,4.0,-100.00,SSW,209,7.0,16.0,22,0.00,,,0.00,277.000000,,2013-04-03 23:02:00,
2013-04-03 18:33:00,40.0,4.0,-100.00,SSW,209,7.0,16.0,22,0.00,,,0.00,277.000000,,2013-04-03 23:33:00,
2013-04-03 18:43:00,40.0,4.0,-100.00,SSW,209,7.0,16.0,22,0.00,,,0.00,277.000000,,2013-04-03 23:43:00,
2013-04-03 18:54:00,40.0,4.0,-100.00,SSW,209,7.0,16.0,22,0.00,,,0.00,277.000000,,2013-04-03 23:54:00,
2013-04-03 19:02:00,36.0,3.0,-100.00,SW,225,8.0,21.0,24,0.00,,,0.00,116.000000,,2013-04-04 00:02:00,
2013-04-03 19:32:00,36.0,3.0,-100.00,SW,225,8.0,21.0,24,0.00,,,0.00,116.000000,,2013-04-04 00:32:00,
2013-04-03 19:43:00,36.0,3.0,-100.00,SW,225,8.0,21.0,24,0.00,,,0.00,116.000000,,2013-04-04 00:43:00,
2013-04-03 19:52:00,36.0,3.0,-100.00,SW,225,8.0,21.0,24,0.00,,,0.00,116.000000,,2013-04-04 00:52:00,
2013-04-03 20:02:00,32.0,6.0,-100.00,SSW,213,6.0,16.0,33,0.00,,,0.00,7.000000,,2013-04-04 01:02:00,
2013-04-03 20:32:00,32.0,6.0,-100.00,SSW,213,6.0,16.0,33,0.00,,,0.00,7.000000,,2013-04-04 01:32:00,
2013-04-03 20:43:00,32.0,6.0,-100.00,SSW,213,6.0,16.0,33,0.00,,,0.00,7.000000,,2013-04-04 01:43:00,
2013-04-03 20:52:00,32.0,6.0,-100.00,SSW,213,6.0,16.0,33,0.00,,,0.00,7.000000,,2013-04-04 01:52:00,
2013-04-03 21:02:00,30.0,9.0,-100.00,SSW,211,5.0,14.0,40,0.00,,,0.00,1.000000,,2013-04-04 02:02:00,
2013-04-03 21:22:00,30.0,9.0,-100.00,SSW,211,5.0,14.0,40,0.00,,,0.00,1.000000,,2013-04-04 02:22:00,
2013-04-03 21:32:00,30.0,9.0,-100.00,SSW,211,5.0,14.0,40,0.00,,,0.00,1.000000,,2013-04-04 02:32:00,
2013-04-03 21:42:00,30.0,9.0,-100.00,SSW,211,5.0,14.0,40,0.00,,,0.00,1.000000,,2013-04-04 02:42:00,
2013-04-03 21:52:00,30.0,9.0,-100.00,SSW,211,5.0,14.0,40,0.00,,,0.00,1.000000,,2013-04-04 02:52:00,
2013-04-03 22:02:00,30.0,11.0,-100.00,SW,214,7.0,18.0,44,0.00,,,0.00,1.000000,,2013-04-04 03:02:00,
2013-04-03 22:23:00,30.0,11.0,-100.00,SW,214,7.0,18.0,44,0.00,,,0.00,1.000000,,2013-04-04 03:23:00,
2013-04-03 22:34:00,30.0,11.0,-100.00,SW,214,7.0,18.0,44,0.00,,,0.00,1.000000,,2013-04-04 03:34:00,
2013-04-03 22:45:00,30.0,11.0,-100.00,SW,214,7.0,18.0,44,0.00,,,0.00,1.000000,,2013-04-04 03:45:00,
2013-04-03 22:53:00,30.0,11.0,-100.00,SW,214,7.0,18.0,44,0.00,,,0.00,1.000000,,2013-04-04 03:53:00,
2013-04-03 23:02:00,30.0,12.0,-100.00,SW,219,7.0,17.0,47,0.00,,,0.00,1.000000,,2013-04-04 04:02:00,
2013-04-03 23:34:00,30.0,12.0,-100.00,SW,219,7.0,17.0,47,0.00,,,0.00,1.000000,,2013-04-04 04:34:00,
2013-04-03 23:43:00,30.0,12.0,-100.00,SW,219,7.0,17.0,47,0.00,,,0.00,1.000000,,2013-04-04 04:43:00,
2013-04-03 23:53:00,30.0,12.0,-100.00,SW,219,7.0,17.0,47,0.00,,,0.00,1.000000,,2013-04-04 04:53:00,